CW4745 Weather Reports


Display with metric or nautical units.
time (UTC)temp
F
wind
direction
speed
MPH
gust
MPH
rain 1hr
in
rain 24hr
in
rain mn
in
humidity
%
barometer
mb
20171022095450 54 263 8.0 20.0 0.01 0.27 0.15 81 1006.4
20171022094451 55 214 14.0 27.0 0.01 0.27 0.15 77 1006.4
20171022093450 55 247 12.0 24.0 0.01 0.27 0.15 75 1006.2
20171022092448 55 281 11.0 22.0 0.01 0.27 0.15 75 1006.1
20171022091450 55 253 11.0 21.0 0.01 0.27 0.15 77 1006.1
20171022090450 55 263 12.0 23.0 0.01 0.27 0.15 77 1006.0
20171022085453 55 266 14.0 20.0 0.00 0.26 0.14 76 1005.9
20171022084450 55 239 15.0 26.0 0.00 0.26 0.14 76 1005.8
20171022083450 55 254 14.0 22.0 0.00 0.26 0.14 76 1005.7
20171022082451 55 290 15.0 26.0 0.00 0.26 0.14 77 1005.8
20171022081449 55 256 14.0 23.0 0.00 0.26 0.14 76 1005.5
20171022080450 55 249 15.0 24.0 0.00 0.26 0.14 77 1005.5
20171022075449 55 259 11.0 22.0 0.00 0.26 0.14 77 1005.3
20171022074449 55 266 14.0 22.0 0.00 0.26 0.14 77 1005.1
20171022073448 55 250 13.0 21.0 0.00 0.26 0.14 79 1005.1
20171022072449 54 266 15.0 21.0 0.00 0.26 0.14 79 1004.9
20171022071453 54 291 14.0 21.0 0.00 0.28 0.14 81 1004.7
20171022070455 53 276 10.0 17.0 0.00 0.28 0.14 84 1004.7
20171022065448 53 245 11.0 23.0 0.00 0.30 0.14 84 1004.5
20171022064458 54 261 13.0 23.0 0.00 0.31 0.14 82 1004.4
20171022063448 54 263 11.0 27.0 0.00 0.31 0.14 83 1004.2
20171022062448 54 307 13.0 19.0 0.00 0.31 0.14 84 1004.1
20171022061448 54 228 12.0 20.0 0.00 0.31 0.14 83 1004.0
20171022060444 54 274 10.0 19.0 0.00 0.31 0.14 85 1003.7
20171022055443 54 250 10.0 21.0 0.01 0.31 0.14 87 1003.6
20171022054444 54 233 9.0 18.0 0.01 0.31 0.14 88 1003.5
20171022053443 54 271 10.0 22.0 0.02 0.31 0.14 87 1003.5
20171022052444 55 273 13.0 24.0 0.02 0.31 0.14 85 1003.4
20171022051447 54 305 13.0 22.0 0.02 0.31 0.14 87 1003.3
20171022050446 54 240 12.0 22.0 0.02 0.31 0.14 88 1003.1
20171022045443 54 250 11.0 17.0 0.01 0.30 0.13 88 1003.1
20171022044443 54 240 9.0 19.0 0.01 0.30 0.13 88 1003.0
20171022043443 54 250 7.0 17.0 0.00 0.29 0.13 88 1003.0
20171022042443 53 253 10.0 15.0 0.00 0.29 0.13 90 1003.0
20171022041444 53 266 8.0 13.0 0.00 0.29 0.13 92 1002.8
20171022040443 51 192 3.0 7.0 0.00 0.29 0.13 91 1002.8
20171022035442 51 128 5.0 12.0 0.02 0.29 0.13 91 1002.6
20171022034442 51 173 5.0 11.0 0.02 0.29 0.13 91 1002.8
20171022033438 51 293 3.0 14.0 0.06 0.29 0.13 91 1002.8
20171022032439 51 174 8.0 15.0 0.06 0.29 0.13 91 1002.6
20171022031437 50 181 9.0 18.0 0.08 0.29 0.13 91 1002.6
20171022030437 50 120 7.0 16.0 0.08 0.29 0.13 90 1002.6
20171022025439 50 181 10.0 22.0 0.06 0.28 0.11 90 1002.6
20171022024439 50 152 11.0 22.0 0.06 0.28 0.11 89 1002.5
20171022023437 50 153 9.0 20.0 0.02 0.24 0.07 89 1002.6
20171022022436 51 184 8.0 20.0 0.02 0.23 0.06 88 1002.7
20171022021436 51 157 9.0 22.0 0.01 0.21 0.05 87 1002.7
20171022020439 51 249 11.0 23.0 0.01 0.21 0.05 86 1002.9
20171022015434 51 199 13.0 26.0 0.03 0.21 0.05 86 1002.9
20171022014435 51 178 11.0 28.0 0.03 0.21 0.05 86 1003.0
20171022013435 51 102 11.0 26.0 0.03 0.21 0.05 85 1002.9
20171022012436 51 167 10.0 21.0 0.04 0.21 0.05 85 1003.1
20171022011434 51 130 11.0 26.0 0.04 0.20 0.04 84 1003.2
20171022010434 52 153 15.0 23.0 0.04 0.20 0.04 83 1003.2
20171022005432 52 215 13.0 24.0 0.02 0.18 0.02 81 1003.1
20171022004432 53 188 11.0 30.0 0.02 0.18 0.02 80 1003.3
20171022003434 53 161 15.0 31.0 0.02 0.18 0.02 80 1003.2
20171022002432 53 168 13.0 29.0 0.01 0.17 0.01 80 1003.2
20171022001432 54 214 12.0 29.0 0.00 0.17 0.00 77 1003.2
20171022000431 53 229 11.0 23.0 0.00 0.17 0.00 76 1003.3
20171021235432 53 197 17.0 27.0 0.00 0.17 0.00 76 1003.4
20171021234430 53 221 12.0 22.0 0.00 0.17 0.00 76 1003.5
20171021233431 54 144 10.0 27.0 0.00 0.17 0.00 76 1003.7
20171021232432 54 191 10.0 19.0 0.00 0.17 0.00 76 1003.7
20171021231430 54 142 8.0 24.0 0.00 0.17 0.00 76 1003.8
20171021230431 54 239 11.0 32.0 0.00 0.17 0.00 76 1004.0
20171021225430 53 152 13.0 22.0 0.00 0.17 0.00 76 1004.0
20171021224430 53 167 9.0 20.0 0.00 0.17 0.00 77 1004.0
20171021223430 54 192 10.0 26.0 0.00 0.17 0.00 76 1004.2
20171021222429 54 118 10.0 22.0 0.00 0.17 0.00 77 1004.3
20171021221430 54 190 10.0 21.0 0.00 0.17 0.00 77 1004.3
20171021220430 54 154 7.0 20.0 0.00 0.17 0.00 77 1004.3
20171021215428 54 161 14.0 26.0 0.00 0.17 0.17 77 1004.5
20171021214429 55 192 13.0 26.0 0.00 0.17 0.17 77 1004.5
20171021213434 55 180 10.0 27.0 0.00 0.17 0.17 76 1004.6
20171021212429 55 170 15.0 27.0 0.00 0.17 0.17 77 1004.7
20171021211429 55 174 14.0 27.0 0.00 0.17 0.17 76 1004.6
20171021210427 55 218 10.0 24.0 0.00 0.17 0.17 76 1004.9
20171021205428 55 239 13.0 21.0 0.00 0.17 0.17 76 1004.9
20171021204428 55 168 13.0 28.0 0.00 0.17 0.17 76 1004.9
20171021203426 56 235 8.0 29.0 0.00 0.17 0.17 78 1005.0
20171021202426 56 214 8.0 29.0 0.00 0.17 0.17 75 1005.1
20171021201429 56 239 14.0 31.0 0.00 0.17 0.17 75 1005.0
20171021200428 55 223 16.0 31.0 0.00 0.17 0.17 77 1005.1
20171021195425 54 228 11.0 19.0 0.00 0.17 0.17 80 1005.0
20171021194432 53 181 7.0 15.0 0.01 0.17 0.17 81 1005.1
20171021193425 53 175 8.0 16.0 0.01 0.17 0.17 81 1005.1
20171021192428 53 175 6.0 17.0 0.01 0.17 0.17 80 1005.3
20171021191428 53 183 9.0 18.0 0.01 0.17 0.17 79 1005.3
20171021190425 53 207 11.0 22.0 0.01 0.17 0.17 79 1005.3
20171021185425 54 249 10.0 27.0 0.01 0.17 0.17 79 1005.4
20171021184427 55 174 15.0 32.0 0.00 0.17 0.16 74 1005.6
20171021183425 56 171 10.0 28.0 0.00 0.17 0.16 78 1005.6
20171021182426 55 171 7.0 19.0 0.00 0.17 0.16 77 1005.7
20171021181425 55 228 8.0 20.0 0.00 0.17 0.16 76 1005.8
20171021180427 56 174 9.0 28.0 0.00 0.20 0.16 76 1005.6
20171021175431 56 194 13.0 30.0 0.00 0.22 0.16 77 1005.7
20171021174428 56 212 12.0 28.0 0.00 0.26 0.16 77 1005.7
20171021173426 55 180 11.0 29.0 0.00 0.31 0.16 77 1005.8
20171021172424 55 167 11.0 21.0 0.00 0.38 0.16 81 1005.7
20171021171430 55 238 10.0 20.0 0.02 0.45 0.16 82 1005.8
20171021170426 55 168 9.0 18.0 0.03 0.46 0.16 82 1005.7
20171021165425 55 194 11.0 23.0 0.03 0.46 0.16 81 1005.9
20171021164425 55 181 13.0 23.0 0.03 0.46 0.16 80 1005.9
20171021163424 54 201 10.0 23.0 0.03 0.49 0.16 84 1006.0
20171021162424 54 190 10.0 28.0 0.03 0.50 0.16 83 1006.0
20171021161425 56 171 17.0 43.0 0.02 0.57 0.14 76 1006.2
20171021160424 58 211 10.0 23.0 0.00 0.55 0.13 76 1005.7
20171021155423 58 183 13.0 23.0 0.02 0.55 0.13 76 1005.7
20171021154424 57 198 13.0 26.0 0.02 0.55 0.13 77 1005.7
20171021153425 56 177 10.0 23.0 0.02 0.55 0.13 78 1005.7
20171021152423 55 190 6.0 17.0 0.02 0.55 0.13 79 1005.9
20171021151422 55 183 9.0 18.0 0.03 0.55 0.13 80 1006.1
20171021150423 55 175 10.0 22.0 0.03 0.55 0.13 78 1006.2
20171021145422 57 221 18.0 34.0 0.02 0.54 0.12 74 1006.6
20171021144423 58 185 13.0 28.0 0.02 0.54 0.11 76 1005.9
20171021143421 57 183 10.0 18.0 0.02 0.54 0.11 76 1005.6
20171021142421 57 225 12.0 26.0 0.01 0.53 0.10 77 1006.0
20171021141421 59 202 10.0 28.0 0.00 0.52 0.09 77 1006.2
20171021140421 60 166 14.0 30.0 0.00 0.52 0.09 73 1006.1
20171021135421 61 266 11.0 32.0 0.00 0.52 0.09 71 1006.0
20171021134418 60 194 11.0 31.0 0.00 0.53 0.09 71 1005.9
20171021133418 61 235 17.0 29.0 0.00 0.53 0.09 72 1005.9
20171021132420 61 177 12.0 32.0 0.01 0.53 0.09 72 1005.9
20171021131420 62 187 14.0 31.0 0.01 0.53 0.09 71 1005.8
20171021130419 62 188 16.0 34.0 0.01 0.53 0.09 72 1005.9
20171021125419 61 199 17.0 32.0 0.01 0.54 0.09 74 1005.9
20171021124419 60 174 10.0 24.0 0.01 0.54 0.09 78 1006.0
20171021123419 58 254 7.0 21.0 0.01 0.55 0.09 77 1006.0
20171021122419 59 254 10.0 24.0 0.00 0.57 0.09 71 1006.3
20171021121419 60 228 8.0 19.0 0.00 0.60 0.09 77 1006.1
20171021120418 61 238 13.0 26.0 0.00 0.61 0.09 73 1006.1
20171021115418 62 215 12.0 22.0 0.00 0.63 0.09 76 1006.1
20171021114418 62 194 12.0 29.0 0.00 0.65 0.09 77 1005.9
20171021113417 62 177 11.0 35.0 0.00 0.68 0.09 78 1005.8
20171021112419 61 202 15.0 28.0 0.01 0.70 0.09 78 1005.8
20171021111417 61 209 12.0 27.0 0.01 0.73 0.09 80 1005.9
20171021110416 60 256 11.0 24.0 0.04 0.74 0.09 82 1005.9
20171021105418 60 194 9.0 23.0 0.04 0.74 0.09 85 1006.0
20171021104412 58 212 10.0 18.0 0.04 0.74 0.09 88 1006.1
20171021103415 57 159 11.0 20.0 0.04 0.74 0.09 88 1006.2
20171021102413 57 187 7.0 20.0 0.03 0.73 0.08 86 1006.3
20171021101412 57 240 9.0 26.0 0.03 0.74 0.08 84 1006.2
20171021100414 58 228 11.0 20.0 0.00 0.72 0.06 86 1006.4